Time;durP1;ratioP1;P1;durP2;ratioP2;P2;SDS_P1;SDS_P2;PMS_P1;PMS_P2;Temp;Humidity;BMP_temperature;BMP_pressure;BME280_temperature;BME280_humidity;BME280_pressure;Samples;Min_cycle;Max_cycle;Signal;HPM_P1;HPM_P2
2022/01/06 00:00:37;;;;;;;11.38;1.83;;;;;;;5.11;100.00;101548.88;5073587;28;20048;-32
2022/01/06 00:03:06;;;;;;;12.60;2.38;;;;;;;5.11;100.00;101549.72;5074200;28;20174;-37
2022/01/06 00:05:34;;;;;;;11.85;1.83;;;;;;;5.10;100.00;101539.72;5074234;28;20136;-40
2022/01/06 00:08:02;;;;;;;14.23;1.85;;;;;;;5.09;100.00;101542.75;5073180;28;20071;-37
2022/01/06 00:10:31;;;;;;;12.57;1.70;;;;;;;5.09;100.00;101546.34;5072598;28;20060;-40
2022/01/06 00:13:10;;;;;;;21.63;2.58;;;;;;;5.08;100.00;101550.19;5073415;28;20075;-39
2022/01/06 00:15:44;;;;;;;19.17;2.97;;;;;;;5.08;100.00;101550.19;5074118;28;20084;-41
2022/01/06 00:18:21;;;;;;;18.70;3.08;;;;;;;5.10;100.00;101555.50;5074025;28;20139;-38
2022/01/06 00:23:38;;;;;;;13.75;2.10;;;;;;;5.10;100.00;101548.03;5074143;28;20048;-35
2022/01/06 00:26:08;;;;;;;16.15;2.33;;;;;;;5.13;100.00;101555.00;5073956;28;20048;-38
2022/01/06 00:28:36;;;;;;;16.73;2.13;;;;;;;5.16;100.00;101554.50;5071236;28;20048;-41
2022/01/06 00:31:05;;;;;;;14.48;2.10;;;;;;;5.16;100.00;101552.59;5073619;28;20123;-38
2022/01/06 00:33:35;;;;;;;12.13;2.10;;;;;;;5.17;100.00;101558.97;5073426;28;20052;-31
2022/01/06 00:36:03;;;;;;;15.48;2.00;;;;;;;5.19;100.00;101563.16;5072961;28;20482;-37
2022/01/06 00:38:31;;;;;;;16.42;2.58;;;;;;;5.19;100.00;101565.94;5073637;28;20040;-38
2022/01/06 00:40:59;;;;;;;20.02;2.45;;;;;;;5.20;100.00;101575.03;5072569;28;20052;-39
2022/01/06 00:43:26;;;;;;;10.88;1.98;;;;;;;5.20;100.00;101580.56;5073542;28;20053;-36
2022/01/06 00:45:54;;;;;;;13.30;2.40;;;;;;;5.18;100.00;101574.47;5073215;28;20056;-29
2022/01/06 00:48:22;;;;;;;13.80;2.05;;;;;;;5.19;100.00;101578.94;5072658;28;20505;-37
2022/01/06 00:50:51;;;;;;;17.35;2.13;;;;;;;5.17;100.00;101581.94;5073002;28;20057;-38
2022/01/06 00:53:19;;;;;;;14.77;2.45;;;;;;;5.17;100.00;101583.88;5072777;28;20071;-36
2022/01/06 00:55:47;;;;;;;24.15;2.70;;;;;;;5.15;100.00;101580.50;5071782;28;20044;-38
2022/01/06 00:58:15;;;;;;;17.13;2.55;;;;;;;5.14;100.00;101596.25;5071728;28;20067;-40
2022/01/06 01:00:43;;;;;;;17.15;2.63;;;;;;;5.13;100.00;101605.63;5072681;28;20382;-41
2022/01/06 01:03:14;;;;;;;11.98;2.22;;;;;;;5.10;100.00;101600.59;5071952;28;20493;-38
2022/01/06 01:05:43;;;;;;;17.00;2.20;;;;;;;5.10;100.00;101606.13;5072930;28;20132;-39
2022/01/06 01:08:13;;;;;;;22.25;3.10;;;;;;;5.10;100.00;101602.50;5072657;28;20093;-36
2022/01/06 01:10:42;;;;;;;16.52;2.42;;;;;;;5.08;100.00;101596.38;5072314;28;20044;-40
2022/01/06 01:13:12;;;;;;;19.58;2.97;;;;;;;5.07;100.00;101600.22;5072662;28;20498;-42
2022/01/06 01:15:45;;;;;;;15.45;2.85;;;;;;;5.05;100.00;101602.41;5072458;28;20052;-38
2022/01/06 01:18:18;;;;;;;16.75;2.20;;;;;;;5.03;100.00;101610.94;5072010;28;20049;-40
2022/01/06 01:20:46;;;;;;;15.15;2.38;;;;;;;5.01;100.00;101607.56;5072587;28;20052;-33
2022/01/06 01:23:16;;;;;;;17.75;2.17;;;;;;;5.01;100.00;101615.88;5071681;28;20132;-38
2022/01/06 01:25:44;;;;;;;15.30;2.40;;;;;;;5.02;100.00;101616.72;5072394;28;20429;-32
2022/01/06 01:28:14;;;;;;;15.98;2.10;;;;;;;5.03;100.00;101610.94;5072505;28;20079;-38
2022/01/06 01:30:54;;;;;;;15.02;2.30;;;;;;;5.06;100.00;101620.69;5071561;28;20110;-36
2022/01/06 01:33:22;;;;;;;17.80;2.20;;;;;;;5.06;100.00;101626.22;5072622;28;20132;-39
2022/01/06 01:35:50;;;;;;;19.33;2.65;;;;;;;5.07;100.00;101628.75;5071913;28;20068;-41
2022/01/06 01:38:19;;;;;;;20.15;2.53;;;;;;;5.08;100.00;101624.03;5071293;28;20051;-36
2022/01/06 01:40:46;;;;;;;16.15;2.40;;;;;;;5.08;100.00;101627.66;5072220;28;20053;-38
2022/01/06 01:43:14;;;;;;;14.07;2.25;;;;;;;5.08;100.00;101632.34;5072063;28;20082;-34
2022/01/06 01:45:46;;;;;;;12.93;2.00;;;;;;;5.06;100.00;101634.50;5071500;28;20045;-37
2022/01/06 01:48:22;;;;;;;17.83;2.47;;;;;;;5.04;100.00;101647.75;5072269;28;20114;-40
2022/01/06 01:50:50;;;;;;;14.88;1.60;;;;;;;5.03;100.00;101648.81;5072132;28;20063;-36
2022/01/06 01:53:19;;;;;;;11.93;1.85;;;;;;;5.01;100.00;101657.34;5071151;28;20044;-31
2022/01/06 01:55:47;;;;;;;12.13;1.83;;;;;;;4.99;100.00;101661.47;5071676;28;20094;-40
2022/01/06 01:58:16;;;;;;;12.85;1.92;;;;;;;4.95;100.00;101658.34;5071197;28;20037;-37
2022/01/06 02:00:44;;;;;;;12.85;1.83;;;;;;;4.92;100.00;101658.00;5071240;28;20052;-36
2022/01/06 02:03:11;;;;;;;14.15;1.80;;;;;;;4.88;100.00;101667.84;5071716;28;20147;-35
2022/01/06 02:05:39;;;;;;;15.85;2.22;;;;;;;4.84;100.00;101661.94;5071461;28;20170;-34
2022/01/06 02:08:07;;;;;;;14.52;2.05;;;;;;;4.79;100.00;101661.84;5071959;28;20045;-39
2022/01/06 02:10:37;;;;;;;14.75;2.17;;;;;;;4.76;100.00;101663.19;5071932;28;20060;-31
2022/01/06 02:13:05;;;;;;;15.45;1.90;;;;;;;4.71;100.00;101662.22;5070925;28;20044;-33
2022/01/06 02:15:32;;;;;;;15.10;2.05;;;;;;;4.68;100.00;101660.75;5071453;28;20048;-32
2022/01/06 02:18:00;;;;;;;7.20;1.70;;;;;;;4.66;100.00;101659.31;5071725;28;20055;-39
2022/01/06 02:20:29;;;;;;;13.75;1.95;;;;;;;4.64;100.00;101670.63;5070500;28;20048;-37
2022/01/06 02:22:57;;;;;;;8.95;1.75;;;;;;;4.61;100.00;101664.72;5071712;28;20045;-35
2022/01/06 02:25:30;;;;;;;17.67;2.20;;;;;;;4.58;100.00;101665.22;5071218;28;20052;-38
2022/01/06 02:28:00;;;;;;;16.30;2.03;;;;;;;4.54;100.00;101669.53;5070531;28;20055;-40
2022/01/06 02:30:28;;;;;;;10.55;1.70;;;;;;;4.49;100.00;101662.81;5071683;28;20072;-34
2022/01/06 02:32:56;;;;;;;15.43;1.67;;;;;;;4.47;100.00;101675.19;5071405;28;20052;-37
2022/01/06 02:35:24;;;;;;;12.77;2.17;;;;;;;4.42;100.00;101670.34;5070809;28;20497;-34
2022/01/06 02:37:54;;;;;;;14.02;2.20;;;;;;;4.38;100.00;101669.19;5071240;28;20044;-32
2022/01/06 02:40:25;;;;;;;14.57;1.83;;;;;;;4.34;100.00;101673.50;5071312;28;20405;-34
2022/01/06 02:42:55;;;;;;;11.20;1.58;;;;;;;4.31;100.00;101673.97;5071111;28;20043;-31
2022/01/06 02:45:26;;;;;;;16.17;1.80;;;;;;;4.28;100.00;101679.13;5071489;28;20048;-33
2022/01/06 02:47:55;;;;;;;12.18;1.63;;;;;;;4.22;100.00;101678.13;5070635;28;20490;-35
2022/01/06 02:50:23;;;;;;;10.20;1.58;;;;;;;4.18;100.00;101682.47;5071021;28;20047;-34
2022/01/06 02:52:52;;;;;;;11.80;1.55;;;;;;;4.13;100.00;101683.19;5071234;28;20048;-39
2022/01/06 02:55:21;;;;;;;19.30;2.20;;;;;;;4.09;100.00;101686.63;5068999;28;20062;-38
2022/01/06 02:57:48;;;;;;;13.77;2.20;;;;;;;4.05;100.00;101688.19;5071265;28;20040;-33
2022/01/06 03:00:18;;;;;;;6.25;1.48;;;;;;;4.03;100.00;101687.56;5070906;28;20049;-37
2022/01/06 03:02:47;;;;;;;13.15;2.00;;;;;;;4.00;100.00;101685.28;5070441;28;20102;-39
2022/01/06 03:05:16;;;;;;;9.85;1.90;;;;;;;3.98;100.00;101687.47;5071002;28;20052;-35
2022/01/06 03:07:45;;;;;;;3.75;0.85;;;;;;;3.95;100.00;101685.16;5070986;28;20067;-33
2022/01/06 03:10:15;;;;;;;6.43;1.00;;;;;;;3.92;100.00;101677.34;5070320;28;20041;-33
2022/01/06 03:12:46;;;;;;;7.97;1.15;;;;;;;3.87;100.00;101689.09;5071034;28;20051;-38
2022/01/06 03:15:16;;;;;;;5.63;0.95;;;;;;;3.84;100.00;101686.78;5070962;28;20045;-32
2022/01/06 03:17:45;;;;;;;8.93;1.30;;;;;;;3.80;100.00;101702.97;5070164;28;20044;-39
2022/01/06 03:20:15;;;;;;;5.40;1.10;;;;;;;3.77;100.00;101700.72;5070936;28;20083;-35
2022/01/06 03:22:44;;;;;;;11.05;1.45;;;;;;;3.73;100.00;101707.78;5070311;28;20064;-36
2022/01/06 03:25:13;;;;;;;9.35;1.20;;;;;;;3.71;100.00;101709.91;5070807;28;20144;-34
2022/01/06 03:27:41;;;;;;;13.30;1.42;;;;;;;3.70;100.00;101715.66;5070966;28;20401;-34
2022/01/06 03:30:14;;;;;;;17.70;1.88;;;;;;;3.69;100.00;101719.50;5070106;28;20040;-36
2022/01/06 03:32:42;;;;;;;14.57;1.88;;;;;;;3.67;100.00;101722.50;5073272;28;20076;-34
2022/01/06 03:35:12;;;;;;;14.70;1.70;;;;;;;3.69;100.00;101722.25;5074646;28;20051;-33
2022/01/06 03:37:41;;;;;;;15.55;1.90;;;;;;;3.70;100.00;101732.22;5073684;28;20045;-35
2022/01/06 03:40:10;;;;;;;11.90;1.30;;;;;;;3.71;100.00;101728.41;5074616;28;20043;-36
2022/01/06 03:42:39;;;;;;;10.73;1.55;;;;;;;3.71;100.00;101732.00;5074395;28;20041;-35
2022/01/06 03:45:09;;;;;;;7.68;1.27;;;;;;;3.70;100.00;101735.00;5073617;28;20143;-34
2022/01/06 03:47:38;;;;;;;10.27;1.80;;;;;;;3.70;100.00;101726.72;5074558;28;20052;-37
2022/01/06 03:50:07;;;;;;;10.93;1.42;;;;;;;3.67;100.00;101719.72;5074083;28;20049;-33
2022/01/06 03:52:35;;;;;;;9.13;1.67;;;;;;;3.65;100.00;101718.28;5073648;28;20044;-32
2022/01/06 03:55:04;;;;;;;9.25;1.33;;;;;;;3.63;100.00;101721.25;5074379;28;20128;-33
2022/01/06 03:57:32;;;;;;;12.02;1.38;;;;;;;3.62;100.00;101713.22;5073968;28;20058;-40
2022/01/06 03:59:59;;;;;;;14.88;1.67;;;;;;;3.60;100.00;101724.47;5073581;28;20155;-33
2022/01/06 04:02:27;;;;;;;10.82;1.40;;;;;;;3.58;100.00;101714.78;5073074;28;20366;-33
2022/01/06 04:04:57;;;;;;;11.05;1.65;;;;;;;3.57;100.00;101716.69;5073169;28;20505;-34
2022/01/06 04:07:24;;;;;;;8.85;1.30;;;;;;;3.55;100.00;101718.84;5074054;28;20052;-30
2022/01/06 04:09:52;;;;;;;7.70;1.10;;;;;;;3.56;100.00;101726.03;5074121;28;20075;-33
2022/01/06 04:12:20;;;;;;;11.75;1.73;;;;;;;3.58;100.00;101731.34;5073086;28;20044;-41
2022/01/06 04:14:48;;;;;;;11.55;1.60;;;;;;;3.62;100.00;101724.25;5073945;28;20044;-30
2022/01/06 04:17:15;;;;;;;8.80;1.33;;;;;;;3.65;100.00;101738.44;5074001;28;20082;-35
2022/01/06 04:19:43;;;;;;;12.73;1.30;;;;;;;3.67;100.00;101741.81;5073046;28;20536;-35
2022/01/06 04:22:12;;;;;;;13.75;1.90;;;;;;;3.70;100.00;101735.81;5072627;28;20394;-36
2022/01/06 04:24:40;;;;;;;13.48;1.85;;;;;;;3.73;100.00;101738.13;5073610;28;20135;-37
2022/01/06 04:27:08;;;;;;;14.57;1.52;;;;;;;3.77;100.00;101747.63;5073088;28;20048;-35
2022/01/06 04:29:36;;;;;;;9.00;1.20;;;;;;;3.80;100.00;101746.31;5073858;28;20139;-31
2022/01/06 04:32:04;;;;;;;8.88;1.25;;;;;;;3.83;100.00;101748.59;5073698;28;20059;-39
2022/01/06 04:34:32;;;;;;;5.75;1.30;;;;;;;3.84;100.00;101752.22;5073241;28;20044;-36
2022/01/06 04:37:01;;;;;;;5.35;0.95;;;;;;;3.84;100.00;101754.97;5073395;28;20060;-37
2022/01/06 04:39:30;;;;;;;8.68;1.10;;;;;;;3.81;100.00;101757.13;5073360;28;20036;-37
2022/01/06 04:41:58;;;;;;;5.30;0.80;;;;;;;3.79;100.00;101756.53;5072377;28;20044;-38
2022/01/06 04:44:26;;;;;;;5.68;0.90;;;;;;;3.77;100.00;101757.84;5073315;28;20152;-38
2022/01/06 04:46:53;;;;;;;3.17;0.60;;;;;;;3.74;100.00;101763.81;5073370;28;20048;-37
2022/01/06 04:49:22;;;;;;;6.57;2.42;;;;;;;3.69;100.00;101756.22;5071637;28;20084;-33
2022/01/06 04:51:50;;;;;;;7.05;2.28;;;;;;;3.66;100.00;101762.19;5071521;28;20463;-39
2022/01/06 04:54:18;;;;;;;6.82;2.10;;;;;;;3.60;100.00;101763.13;5072374;28;20040;-37
2022/01/06 04:56:47;;;;;;;5.63;1.70;;;;;;;3.58;100.00;101769.97;5071468;28;20063;-38
2022/01/06 04:59:15;;;;;;;5.03;1.42;;;;;;;3.51;100.00;101775.56;5071785;28;20040;-40
2022/01/06 05:01:43;;;;;;;4.78;1.08;;;;;;;3.46;100.00;101765.19;5069621;28;20398;-40
2022/01/06 05:04:11;;;;;;;3.85;0.98;;;;;;;3.43;100.00;101773.09;5072004;28;20094;-35
2022/01/06 05:06:38;;;;;;;4.85;1.10;;;;;;;3.39;100.00;101769.13;5072355;28;20079;-33
2022/01/06 05:09:06;;;;;;;5.15;1.58;;;;;;;3.35;100.00;101770.66;5072416;28;20086;-32
2022/01/06 05:11:34;;;;;;;3.55;0.80;;;;;;;3.29;100.00;101763.28;5072968;28;20052;-38
2022/01/06 05:14:03;;;;;;;6.38;0.90;;;;;;;3.24;100.00;101761.22;5072946;28;20070;-38
2022/01/06 05:16:31;;;;;;;6.07;0.98;;;;;;;3.19;100.00;101765.75;5071856;28;20040;-39
2022/01/06 05:18:58;;;;;;;5.22;1.00;;;;;;;3.16;100.00;101769.78;5072437;28;20405;-29
2022/01/06 05:21:29;;;;;;;4.65;0.98;;;;;;;3.14;100.00;101766.41;5072877;28;20048;-33
2022/01/06 05:23:57;;;;;;;6.25;0.75;;;;;;;3.11;100.00;101764.97;5072222;28;20056;-38
2022/01/06 05:26:25;;;;;;;7.55;1.25;;;;;;;3.07;100.00;101769.22;5072578;28;20049;-37
2022/01/06 05:28:53;;;;;;;6.72;1.10;;;;;;;3.03;100.00;101769.91;5072651;28;20475;-31
2022/01/06 05:31:22;;;;;;;5.20;0.90;;;;;;;3.00;100.00;101778.63;5071610;28;20049;-40
2022/01/06 05:33:50;;;;;;;11.48;1.95;;;;;;;2.96;100.00;101778.25;5072724;28;20052;-36
2022/01/06 05:36:18;;;;;;;13.73;2.65;;;;;;;2.95;100.00;101779.34;5070565;28;20139;-36
2022/01/06 05:38:45;;;;;;;9.25;1.48;;;;;;;2.97;100.00;101779.94;5072352;28;20098;-35
2022/01/06 05:41:13;;;;;;;9.63;1.15;;;;;;;2.97;100.00;101779.94;5072321;28;20051;-36
2022/01/06 05:43:41;;;;;;;8.38;1.10;;;;;;;2.98;100.00;101787.16;5071424;28;20047;-35
2022/01/06 05:46:09;;;;;;;12.00;1.80;;;;;;;2.99;100.00;101783.34;5072123;28;20075;-34
2022/01/06 05:48:38;;;;;;;9.15;1.63;;;;;;;3.02;100.00;101784.75;5072048;28;20405;-37
2022/01/06 05:51:06;;;;;;;11.60;1.58;;;;;;;3.05;100.00;101785.16;5071422;28;20037;-40
2022/01/06 05:53:33;;;;;;;12.30;2.00;;;;;;;3.10;100.00;101785.31;5071885;28;20050;-37
2022/01/06 05:56:01;;;;;;;11.65;1.92;;;;;;;3.16;100.00;101791.84;5071550;28;20047;-39
2022/01/06 05:58:29;;;;;;;11.23;1.50;;;;;;;3.23;100.00;101789.00;5070913;28;20052;-36
2022/01/06 06:00:57;;;;;;;14.00;2.35;;;;;;;3.32;100.00;101787.66;5071678;28;20059;-37
2022/01/06 06:03:27;;;;;;;14.95;1.80;;;;;;;3.44;100.00;101796.84;5070904;28;20410;-33
2022/01/06 06:05:56;;;;;;;17.05;1.73;;;;;;;3.57;100.00;101799.47;5071085;28;20053;-37
2022/01/06 06:08:24;;;;;;;9.20;1.30;;;;;;;3.67;100.00;101798.94;5071634;28;20444;-39
2022/01/06 06:10:52;;;;;;;9.25;1.55;;;;;;;3.74;100.00;101806.06;5071671;28;20143;-31
2022/01/06 06:13:19;;;;;;;10.00;1.48;;;;;;;3.79;100.00;101811.75;5069907;28;20070;-36
2022/01/06 06:15:47;;;;;;;9.68;1.23;;;;;;;3.84;100.00;101815.69;5071664;28;20053;-34
2022/01/06 06:18:16;;;;;;;7.07;1.13;;;;;;;3.87;100.00;101818.84;5071522;28;20143;-32
2022/01/06 06:20:43;;;;;;;8.10;1.55;;;;;;;3.89;100.00;101813.94;5070540;28;20052;-39
2022/01/06 06:23:12;;;;;;;10.57;1.15;;;;;;;3.92;100.00;101829.22;5069587;28;20068;-40
2022/01/06 06:25:40;;;;;;;10.18;1.80;;;;;;;3.93;100.00;101828.97;5067613;28;20063;-32
2022/01/06 06:28:08;;;;;;;7.68;1.10;;;;;;;3.93;100.00;101833.66;5068929;28;20058;-44
2022/01/06 06:30:36;;;;;;;12.48;1.58;;;;;;;3.93;100.00;101830.91;5069599;28;20051;-37
2022/01/06 06:33:04;;;;;;;11.70;1.63;;;;;;;3.91;100.00;101830.28;5070009;28;20056;-32
2022/01/06 06:35:32;;;;;;;5.05;0.93;;;;;;;3.89;100.00;101826.91;5070976;28;20067;-37
2022/01/06 06:38:00;;;;;;;6.57;1.08;;;;;;;3.87;100.00;101829.91;5071201;28;20056;-39
2022/01/06 06:40:29;;;;;;;4.75;0.70;;;;;;;3.87;100.00;101834.56;5070499;28;20047;-36
2022/01/06 06:42:57;;;;;;;11.15;1.20;;;;;;;3.85;100.00;101834.81;5070969;28;20047;-31
2022/01/06 06:45:25;;;;;;;8.48;1.20;;;;;;;3.83;100.00;101830.56;5071314;28;20054;-33
2022/01/06 06:47:52;;;;;;;9.18;1.20;;;;;;;3.79;100.00;101831.06;5070589;28;20131;-31
2022/01/06 06:50:21;;;;;;;11.82;1.45;;;;;;;3.76;100.00;101834.28;5070487;28;20056;-33
2022/01/06 06:52:49;;;;;;;10.55;1.35;;;;;;;3.75;100.00;101835.34;5070700;28;20053;-39
2022/01/06 06:55:17;;;;;;;10.02;1.80;;;;;;;3.72;100.00;101837.72;5070186;28;20052;-33
2022/01/06 06:57:46;;;;;;;7.15;1.20;;;;;;;3.70;100.00;101839.88;5071281;28;20045;-38
2022/01/06 07:00:15;;;;;;;7.97;0.93;;;;;;;3.67;100.00;101834.81;5070791;28;20052;-32
2022/01/06 07:02:43;;;;;;;8.23;1.20;;;;;;;3.65;100.00;101836.94;5069202;28;20052;-41
2022/01/06 07:05:11;;;;;;;7.75;1.27;;;;;;;3.63;100.00;101841.84;5069928;28;20041;-37
2022/01/06 07:07:39;;;;;;;10.50;1.48;;;;;;;3.60;100.00;101840.38;5072948;28;20405;-40
2022/01/06 07:10:08;;;;;;;10.57;1.10;;;;;;;3.58;100.00;101848.09;5073314;28;20485;-42
2022/01/06 07:12:38;;;;;;;8.90;1.05;;;;;;;3.59;100.00;101846.16;5074125;28;20051;-39
2022/01/06 07:15:08;;;;;;;12.60;1.30;;;;;;;3.58;100.00;101834.28;5072802;28;20053;-34
2022/01/06 07:17:36;;;;;;;5.05;0.75;;;;;;;3.59;100.00;101832.38;5073369;28;20045;-33
2022/01/06 07:20:05;;;;;;;5.00;0.90;;;;;;;3.59;100.00;101846.16;5073822;28;20045;-34
2022/01/06 07:22:33;;;;;;;8.50;1.02;;;;;;;3.57;100.00;101842.78;5071248;28;20139;-34
2022/01/06 07:25:01;;;;;;;9.27;1.35;;;;;;;3.54;100.00;101851.53;5072159;28;20071;-38
2022/01/06 07:27:29;;;;;;;6.07;1.13;;;;;;;3.50;100.00;101853.88;5073180;28;20090;-40
2022/01/06 07:29:57;;;;;;;6.30;0.80;;;;;;;3.47;100.00;101854.34;5072656;28;20502;-37
2022/01/06 07:32:26;;;;;;;6.40;0.80;;;;;;;3.44;100.00;101854.78;5072531;28;20048;-32
2022/01/06 07:34:56;;;;;;;5.03;1.00;;;;;;;3.39;100.00;101854.66;5073121;28;20550;-41
2022/01/06 07:37:24;;;;;;;5.10;1.02;;;;;;;3.38;100.00;101855.72;5072429;28;20126;-37
2022/01/06 07:39:52;;;;;;;4.53;0.70;;;;;;;3.35;100.00;101856.16;5072575;28;20045;-35
2022/01/06 07:42:20;;;;;;;3.17;0.80;;;;;;;3.33;100.00;101861.91;5072537;28;20504;-33
2022/01/06 07:44:49;;;;;;;3.70;0.60;;;;;;;3.30;100.00;101861.50;5071836;28;20079;-32
2022/01/06 07:47:18;;;;;;;5.30;0.93;;;;;;;3.26;100.00;101857.50;5072223;28;20048;-31
2022/01/06 07:49:47;;;;;;;2.42;0.50;;;;;;;3.22;100.00;101859.03;5071825;28;20064;-37
2022/01/06 07:52:15;;;;;;;3.42;0.60;;;;;;;3.17;100.00;101869.91;5071073;28;20044;-31
2022/01/06 07:54:43;;;;;;;4.85;0.65;;;;;;;3.11;100.00;101869.75;5073257;28;20524;-30
2022/01/06 07:57:10;;;;;;;3.45;0.60;;;;;;;3.06;100.00;101871.47;5072299;28;20044;-33
2022/01/06 07:59:38;;;;;;;8.23;1.30;;;;;;;3.03;100.00;101878.28;5072990;28;20079;-35
2022/01/06 08:02:06;;;;;;;10.80;1.45;;;;;;;3.06;100.00;101877.00;5073129;28;20493;-35
2022/01/06 08:04:34;;;;;;;10.77;1.23;;;;;;;3.07;100.00;101887.81;5070950;28;20056;-38
2022/01/06 08:07:05;;;;;;;8.18;1.08;;;;;;;3.13;100.00;101885.22;5072301;28;20040;-40
2022/01/06 08:09:33;;;;;;;6.93;1.10;;;;;;;3.16;100.00;101877.34;5072839;28;20052;-32
2022/01/06 08:12:01;;;;;;;9.52;1.40;;;;;;;3.19;100.00;101882.41;5072156;28;20494;-34
2022/01/06 08:14:29;;;;;;;8.30;1.23;;;;;;;3.22;100.00;101890.22;5073102;28;20417;-37
2022/01/06 08:16:57;;;;;;;7.35;1.27;;;;;;;3.23;100.00;101899.34;5071838;28;20502;-38
2022/01/06 08:19:25;;;;;;;8.50;1.00;;;;;;;3.26;100.00;101891.47;5071670;28;20118;-35
2022/01/06 08:21:53;;;;;;;12.25;1.42;;;;;;;3.28;100.00;101896.75;5070609;28;20594;-35
2022/01/06 08:24:22;;;;;;;5.60;1.00;;;;;;;3.32;100.00;101898.00;5072431;28;20052;-33
2022/01/06 08:26:49;;;;;;;7.60;1.00;;;;;;;3.36;100.00;101904.75;5071896;28;20135;-35
2022/01/06 08:29:17;;;;;;;5.22;0.82;;;;;;;3.40;100.00;101905.97;5072257;28;20052;-34
2022/01/06 08:31:45;;;;;;;7.88;0.98;;;;;;;3.44;100.00;101904.44;5071776;28;20054;-39
2022/01/06 08:34:13;;;;;;;5.13;0.88;;;;;;;3.47;100.00;101904.00;5071502;28;20114;-34
2022/01/06 08:36:41;;;;;;;4.93;1.00;;;;;;;3.52;100.00;101909.69;5072179;28;20110;-37
2022/01/06 08:39:08;;;;;;;9.18;1.08;;;;;;;3.56;100.00;101901.81;5072333;28;20047;-34
2022/01/06 08:41:39;;;;;;;6.53;1.00;;;;;;;3.60;100.00;101903.88;5072159;28;20051;-36
2022/01/06 08:44:06;;;;;;;6.28;1.00;;;;;;;3.64;100.00;101905.09;5072374;28;20048;-41
2022/01/06 08:46:34;;;;;;;5.72;1.05;;;;;;;3.69;100.00;101904.44;5071231;28;20433;-39
2022/01/06 08:49:04;;;;;;;3.50;0.90;;;;;;;3.71;100.00;101905.03;5072012;28;20071;-37
2022/01/06 08:51:31;;;;;;;8.05;1.55;;;;;;;3.73;100.00;101909.28;5071708;28;20045;-37
2022/01/06 08:54:00;;;;;;;5.32;1.10;;;;;;;3.77;100.00;101912.41;5071387;28;20044;-34
2022/01/06 08:56:27;;;;;;;8.43;1.52;;;;;;;3.81;100.00;101908.94;5072547;28;20079;-32
2022/01/06 08:58:56;;;;;;;9.30;1.25;;;;;;;3.91;100.00;101908.44;5072619;28;20539;-37
2022/01/06 09:01:26;;;;;;;6.93;1.50;;;;;;;4.04;100.00;101897.22;5072208;28;20072;-34
2022/01/06 09:03:54;;;;;;;13.35;2.40;;;;;;;4.25;100.00;101903.34;5072775;28;20060;-36
2022/01/06 09:06:22;;;;;;;6.53;1.60;;;;;;;4.50;100.00;101910.47;5073152;28;20437;-36
2022/01/06 09:08:50;;;;;;;6.60;1.90;;;;;;;4.87;100.00;101904.81;5072425;28;20053;-38
2022/01/06 09:11:18;;;;;;;13.85;2.25;;;;;;;5.20;100.00;101913.44;5072721;28;20053;-37
2022/01/06 09:13:46;;;;;;;8.32;1.83;;;;;;;5.61;100.00;101910.81;5072809;28;20059;-33
2022/01/06 09:16:15;;;;;;;6.63;1.88;;;;;;;6.06;100.00;101906.38;5071792;28;20076;-36
2022/01/06 09:18:43;;;;;;;8.48;1.58;;;;;;;6.50;100.00;101906.75;5072156;28;20056;-35
2022/01/06 09:21:11;;;;;;;9.57;1.60;;;;;;;6.86;100.00;101903.56;5071277;28;20072;-41
2022/01/06 09:23:39;;;;;;;9.85;1.90;;;;;;;7.20;100.00;101907.22;5071587;28;20079;-39
2022/01/06 09:26:06;;;;;;;8.07;1.63;;;;;;;7.52;100.00;101904.72;5072412;28;20054;-36
2022/01/06 09:28:38;;;;;;;13.63;2.13;;;;;;;7.92;100.00;101898.94;5071513;28;20044;-41
2022/01/06 09:31:06;;;;;;;8.95;1.58;;;;;;;8.38;100.00;101907.94;5071736;28;20055;-37
2022/01/06 09:33:35;;;;;;;8.82;1.52;;;;;;;8.80;100.00;101904.50;5072484;28;20059;-35
2022/01/06 09:36:03;;;;;;;8.25;1.75;;;;;;;9.20;100.00;101904.91;5071751;28;20052;-39
2022/01/06 09:38:31;;;;;;;6.15;1.20;;;;;;;9.57;100.00;101904.13;5072129;28;20047;-40
2022/01/06 09:41:03;;;;;;;8.00;1.50;;;;;;;9.86;100.00;101904.59;5072173;28;20037;-37
2022/01/06 09:43:32;;;;;;;5.60;1.17;;;;;;;9.86;100.00;101899.84;5071302;28;20048;-39
2022/01/06 09:46:03;;;;;;;7.50;1.30;;;;;;;9.89;100.00;101906.84;5072137;28;20135;-40
2022/01/06 09:48:31;;;;;;;15.90;1.83;;;;;;;9.85;98.70;101903.75;5072336;28;20476;-33
2022/01/06 09:51:00;;;;;;;11.23;1.80;;;;;;;9.80;97.59;101908.44;5071148;28;20123;-40
2022/01/06 09:53:28;;;;;;;13.40;1.80;;;;;;;9.62;94.67;101909.72;5072105;28;20061;-41
2022/01/06 09:55:56;;;;;;;7.20;1.63;;;;;;;9.48;96.04;101905.72;5071850;28;20480;-35
2022/01/06 09:58:26;;;;;;;7.68;1.50;;;;;;;9.39;95.73;101902.59;5071360;28;20052;-37
2022/01/06 10:00:55;;;;;;;7.05;1.63;;;;;;;9.37;96.62;101909.53;5071876;28;20100;-35
2022/01/06 10:03:33;;;;;;;9.13;1.52;;;;;;;9.16;94.88;101912.13;5072451;28;20486;-40
2022/01/06 10:06:12;;;;;;;5.57;1.40;;;;;;;8.78;94.56;101906.72;5071967;28;20053;-38
2022/01/06 10:08:40;;;;;;;9.88;1.50;;;;;;;8.58;96.46;101908.19;5071592;28;20110;-41
2022/01/06 10:11:13;;;;;;;7.18;1.80;;;;;;;8.58;97.74;101908.19;5069944;28;20068;-37
2022/01/06 10:13:43;;;;;;;7.53;1.60;;;;;;;8.58;95.01;101907.34;5070336;28;20090;-40
2022/01/06 10:16:13;;;;;;;6.47;1.70;;;;;;;8.66;96.54;101909.63;5071213;28;20040;-33
2022/01/06 10:18:43;;;;;;;7.53;1.85;;;;;;;8.87;96.99;101899.56;5070562;28;20052;-39
2022/01/06 10:21:15;;;;;;;15.07;2.17;;;;;;;9.14;96.08;101899.56;5071408;28;20094;-38
2022/01/06 10:23:43;;;;;;;7.72;1.75;;;;;;;9.45;95.25;101901.50;5071432;28;20055;-33
2022/01/06 10:26:14;;;;;;;8.77;2.35;;;;;;;9.63;93.35;101905.81;5070766;28;20044;-40
2022/01/06 10:28:42;;;;;;;7.82;1.70;;;;;;;9.81;93.34;101893.41;5069909;28;20173;-36
2022/01/06 10:31:10;;;;;;;7.55;1.48;;;;;;;10.05;91.72;101897.44;5069893;28;20048;-30
2022/01/06 10:33:42;;;;;;;6.43;1.52;;;;;;;10.21;91.10;101892.81;5069827;28;20048;-37
2022/01/06 10:36:10;;;;;;;7.05;0.90;;;;;;;10.43;88.39;101895.44;5069929;28;20045;-36
2022/01/06 10:38:39;;;;;;;6.00;0.90;;;;;;;10.55;87.81;101887.69;5070763;28;20514;-38
2022/01/06 10:41:12;;;;;;;6.65;0.95;;;;;;;10.70;85.82;101894.13;5070490;28;20044;-37
2022/01/06 10:43:40;;;;;;;6.50;1.27;;;;;;;10.71;83.79;101892.19;5071293;28;20040;-38
2022/01/06 10:46:08;;;;;;;4.47;0.88;;;;;;;10.75;83.56;101887.75;5070250;28;20135;-36
2022/01/06 10:48:36;;;;;;;8.30;1.30;;;;;;;10.82;82.11;101893.88;5070695;28;20119;-35
2022/01/06 10:51:05;;;;;;;8.27;0.90;;;;;;;10.85;82.36;101890.53;5071336;28;20123;-39
2022/01/06 10:53:33;;;;;;;3.30;0.77;;;;;;;10.76;80.90;101883.84;5069735;28;20053;-37
2022/01/06 10:56:02;;;;;;;4.40;0.88;;;;;;;10.51;80.64;101881.81;5070678;28;20052;-42
2022/01/06 10:58:30;;;;;;;5.03;0.93;;;;;;;10.21;81.25;101873.28;5070932;28;20088;-35
2022/01/06 11:01:00;;;;;;;6.95;1.05;;;;;;;9.92;81.29;101876.47;5070047;28;20059;-37
2022/01/06 11:03:33;;;;;;;6.28;1.20;;;;;;;9.71;83.05;101877.47;5070248;28;20090;-37
2022/01/06 11:06:03;;;;;;;6.38;0.93;;;;;;;9.46;82.36;101866.13;5071089;28;20048;-38
2022/01/06 11:08:33;;;;;;;5.40;0.85;;;;;;;9.21;83.53;101866.75;5069763;28;20131;-37
2022/01/06 11:11:15;;;;;;;4.35;0.80;;;;;;;8.99;83.86;101864.09;5070753;28;20052;-33
2022/01/06 11:13:45;;;;;;;5.38;1.00;;;;;;;8.73;84.15;101871.34;5071213;28;20049;-36
2022/01/06 11:16:14;;;;;;;7.72;0.85;;;;;;;8.57;85.15;101869.50;5069887;28;20146;-37
2022/01/06 11:18:44;;;;;;;4.60;0.80;;;;;;;8.42;85.90;101861.78;5070452;28;20527;-33
2022/01/06 11:21:14;;;;;;;6.47;0.93;;;;;;;8.20;85.78;101877.59;5069513;28;20098;-39
2022/01/06 11:23:42;;;;;;;7.13;1.50;;;;;;;7.88;87.40;101869.97;5070928;28;20049;-35
2022/01/06 11:26:22;;;;;;;7.85;1.20;;;;;;;7.62;89.97;101870.69;5071345;28;20132;-38
2022/01/06 11:28:55;;;;;;;2.97;1.15;;;;;;;7.48;91.72;101874.94;5069996;28;20405;-34
2022/01/06 11:31:26;;;;;;;5.68;1.00;;;;;;;7.40;92.95;101872.56;5070846;28;20132;-38